sensor_id;sensor_type;location;lat;lon;timestamp;P1;durP1;ratioP1;P2;durP2;ratioP2
15454;SDS011;21057;51.024;7.540;2023-05-07T00:00:42;22.13;;;20.77;;
15454;SDS011;21057;51.024;7.540;2023-05-07T00:03:09;21.15;;;20.05;;
15454;SDS011;21057;51.024;7.540;2023-05-07T00:05:37;21.90;;;20.77;;
15454;SDS011;21057;51.024;7.540;2023-05-07T00:08:05;20.80;;;19.30;;
15454;SDS011;21057;51.024;7.540;2023-05-07T00:10:31;22.05;;;20.85;;
15454;SDS011;21057;51.024;7.540;2023-05-07T00:12:58;22.50;;;21.20;;
15454;SDS011;21057;51.024;7.540;2023-05-07T00:15:25;21.48;;;20.27;;
15454;SDS011;21057;51.024;7.540;2023-05-07T00:17:53;21.77;;;20.52;;
15454;SDS011;21057;51.024;7.540;2023-05-07T00:20:20;22.00;;;20.70;;
15454;SDS011;21057;51.024;7.540;2023-05-07T00:22:48;21.70;;;20.50;;
15454;SDS011;21057;51.024;7.540;2023-05-07T00:25:15;22.00;;;20.80;;
15454;SDS011;21057;51.024;7.540;2023-05-07T00:27:41;22.05;;;20.50;;
15454;SDS011;21057;51.024;7.540;2023-05-07T00:30:08;22.15;;;20.95;;
15454;SDS011;21057;51.024;7.540;2023-05-07T00:32:36;21.90;;;20.70;;
15454;SDS011;21057;51.024;7.540;2023-05-07T00:35:03;22.30;;;20.90;;
15454;SDS011;21057;51.024;7.540;2023-05-07T00:37:30;22.52;;;21.30;;
15454;SDS011;21057;51.024;7.540;2023-05-07T00:39:59;23.20;;;21.90;;
15454;SDS011;21057;51.024;7.540;2023-05-07T00:42:28;22.40;;;21.13;;
15454;SDS011;21057;51.024;7.540;2023-05-07T00:44:55;22.90;;;21.70;;
15454;SDS011;21057;51.024;7.540;2023-05-07T00:47:21;21.88;;;20.58;;
15454;SDS011;21057;51.024;7.540;2023-05-07T00:49:48;21.55;;;20.25;;
15454;SDS011;21057;51.024;7.540;2023-05-07T00:52:16;21.67;;;20.48;;
15454;SDS011;21057;51.024;7.540;2023-05-07T00:54:43;22.20;;;21.00;;
15454;SDS011;21057;51.024;7.540;2023-05-07T00:57:12;22.02;;;20.83;;
15454;SDS011;21057;51.024;7.540;2023-05-07T00:59:39;22.38;;;21.17;;
15454;SDS011;21057;51.024;7.540;2023-05-07T01:02:06;22.40;;;20.83;;
15454;SDS011;21057;51.024;7.540;2023-05-07T01:04:33;22.15;;;20.95;;
15454;SDS011;21057;51.024;7.540;2023-05-07T01:07:00;22.55;;;21.35;;
15454;SDS011;21057;51.024;7.540;2023-05-07T01:09:28;23.42;;;22.08;;
15454;SDS011;21057;51.024;7.540;2023-05-07T01:11:55;23.73;;;22.42;;
15454;SDS011;21057;51.024;7.540;2023-05-07T01:14:24;23.20;;;21.85;;
15454;SDS011;21057;51.024;7.540;2023-05-07T01:16:52;23.65;;;22.33;;
15454;SDS011;21057;51.024;7.540;2023-05-07T01:19:19;23.50;;;22.20;;
15454;SDS011;21057;51.024;7.540;2023-05-07T01:21:47;23.65;;;22.25;;
15454;SDS011;21057;51.024;7.540;2023-05-07T01:24:16;23.15;;;21.95;;
15454;SDS011;21057;51.024;7.540;2023-05-07T01:26:43;22.67;;;21.48;;
15454;SDS011;21057;51.024;7.540;2023-05-07T01:29:10;22.45;;;21.25;;
15454;SDS011;21057;51.024;7.540;2023-05-07T01:31:37;21.90;;;20.80;;
15454;SDS011;21057;51.024;7.540;2023-05-07T01:34:06;20.75;;;19.58;;
15454;SDS011;21057;51.024;7.540;2023-05-07T01:36:34;21.08;;;19.88;;
15454;SDS011;21057;51.024;7.540;2023-05-07T01:39:03;22.10;;;20.90;;
15454;SDS011;21057;51.024;7.540;2023-05-07T01:41:33;21.98;;;20.77;;
15454;SDS011;21057;51.024;7.540;2023-05-07T01:44:00;23.98;;;22.60;;
15454;SDS011;21057;51.024;7.540;2023-05-07T01:46:29;24.50;;;23.05;;
15454;SDS011;21057;51.024;7.540;2023-05-07T01:48:57;23.65;;;22.30;;
15454;SDS011;21057;51.024;7.540;2023-05-07T01:51:24;23.73;;;22.42;;
15454;SDS011;21057;51.024;7.540;2023-05-07T01:53:52;22.75;;;21.55;;
15454;SDS011;21057;51.024;7.540;2023-05-07T01:56:19;23.80;;;22.40;;
15454;SDS011;21057;51.024;7.540;2023-05-07T01:58:47;23.65;;;22.35;;
15454;SDS011;21057;51.024;7.540;2023-05-07T02:01:16;23.48;;;21.92;;
15454;SDS011;21057;51.024;7.540;2023-05-07T02:03:43;22.83;;;21.40;;
15454;SDS011;21057;51.024;7.540;2023-05-07T02:06:10;22.02;;;20.92;;
15454;SDS011;21057;51.024;7.540;2023-05-07T02:08:37;21.67;;;20.58;;
15454;SDS011;21057;51.024;7.540;2023-05-07T02:11:04;22.10;;;20.90;;
15454;SDS011;21057;51.024;7.540;2023-05-07T02:13:31;21.65;;;20.48;;
15454;SDS011;21057;51.024;7.540;2023-05-07T02:16:00;21.93;;;20.73;;
15454;SDS011;21057;51.024;7.540;2023-05-07T02:18:27;22.33;;;20.93;;
15454;SDS011;21057;51.024;7.540;2023-05-07T02:20:54;22.45;;;21.25;;
15454;SDS011;21057;51.024;7.540;2023-05-07T02:23:21;22.77;;;21.45;;
15454;SDS011;21057;51.024;7.540;2023-05-07T02:25:47;22.92;;;21.63;;
15454;SDS011;21057;51.024;7.540;2023-05-07T02:28:14;23.45;;;22.05;;
15454;SDS011;21057;51.024;7.540;2023-05-07T02:30:41;22.90;;;21.60;;
15454;SDS011;21057;51.024;7.540;2023-05-07T02:33:09;23.40;;;22.10;;
15454;SDS011;21057;51.024;7.540;2023-05-07T02:35:37;24.30;;;22.92;;
15454;SDS011;21057;51.024;7.540;2023-05-07T02:38:05;24.10;;;22.40;;
15454;SDS011;21057;51.024;7.540;2023-05-07T02:40:32;23.05;;;21.75;;
15454;SDS011;21057;51.024;7.540;2023-05-07T02:43:03;22.20;;;20.85;;
15454;SDS011;21057;51.024;7.540;2023-05-07T02:45:30;22.48;;;21.17;;
15454;SDS011;21057;51.024;7.540;2023-05-07T02:47:57;21.52;;;20.23;;
15454;SDS011;21057;51.024;7.540;2023-05-07T02:50:25;22.55;;;21.25;;
15454;SDS011;21057;51.024;7.540;2023-05-07T02:52:52;21.25;;;20.15;;
15454;SDS011;21057;51.024;7.540;2023-05-07T02:55:19;21.10;;;20.00;;
15454;SDS011;21057;51.024;7.540;2023-05-07T02:57:46;20.08;;;18.98;;
15454;SDS011;21057;51.024;7.540;2023-05-07T03:00:13;20.55;;;19.45;;
15454;SDS011;21057;51.024;7.540;2023-05-07T03:02:42;21.13;;;20.02;;
15454;SDS011;21057;51.024;7.540;2023-05-07T03:05:08;21.85;;;20.63;;
15454;SDS011;21057;51.024;7.540;2023-05-07T03:07:37;20.70;;;19.70;;
15454;SDS011;21057;51.024;7.540;2023-05-07T03:10:04;21.10;;;20.00;;
15454;SDS011;21057;51.024;7.540;2023-05-07T03:12:32;20.50;;;19.40;;
15454;SDS011;21057;51.024;7.540;2023-05-07T03:14:58;20.83;;;19.73;;
15454;SDS011;21057;51.024;7.540;2023-05-07T03:17:25;20.00;;;19.00;;
15454;SDS011;21057;51.024;7.540;2023-05-07T03:19:52;20.50;;;19.40;;
15454;SDS011;21057;51.024;7.540;2023-05-07T03:22:19;21.10;;;19.80;;
15454;SDS011;21057;51.024;7.540;2023-05-07T03:24:47;19.70;;;18.70;;
15454;SDS011;21057;51.024;7.540;2023-05-07T03:27:14;20.30;;;19.25;;
15454;SDS011;21057;51.024;7.540;2023-05-07T03:29:41;20.58;;;19.17;;
15454;SDS011;21057;51.024;7.540;2023-05-07T03:32:07;20.52;;;19.48;;
15454;SDS011;21057;51.024;7.540;2023-05-07T03:34:34;20.77;;;19.27;;
15454;SDS011;21057;51.024;7.540;2023-05-07T03:37:01;20.50;;;19.40;;
15454;SDS011;21057;51.024;7.540;2023-05-07T03:39:28;20.50;;;19.40;;
15454;SDS011;21057;51.024;7.540;2023-05-07T03:41:56;21.33;;;20.13;;
15454;SDS011;21057;51.024;7.540;2023-05-07T03:44:23;21.42;;;20.13;;
15454;SDS011;21057;51.024;7.540;2023-05-07T03:46:50;20.58;;;19.45;;
15454;SDS011;21057;51.024;7.540;2023-05-07T03:49:17;20.80;;;19.70;;
15454;SDS011;21057;51.024;7.540;2023-05-07T03:51:44;21.08;;;19.98;;
15454;SDS011;21057;51.024;7.540;2023-05-07T03:54:11;21.60;;;20.40;;
15454;SDS011;21057;51.024;7.540;2023-05-07T03:56:37;21.08;;;19.95;;
15454;SDS011;21057;51.024;7.540;2023-05-07T03:59:06;20.85;;;19.75;;
15454;SDS011;21057;51.024;7.540;2023-05-07T04:01:33;21.15;;;20.05;;
15454;SDS011;21057;51.024;7.540;2023-05-07T04:04:00;20.92;;;19.63;;
15454;SDS011;21057;51.024;7.540;2023-05-07T04:06:26;21.13;;;20.02;;
15454;SDS011;21057;51.024;7.540;2023-05-07T04:08:53;20.70;;;19.60;;
15454;SDS011;21057;51.024;7.540;2023-05-07T04:11:20;20.80;;;19.40;;
15454;SDS011;21057;51.024;7.540;2023-05-07T04:13:47;21.45;;;20.25;;
15454;SDS011;21057;51.024;7.540;2023-05-07T04:16:15;20.23;;;19.13;;
15454;SDS011;21057;51.024;7.540;2023-05-07T04:18:42;21.40;;;20.10;;
15454;SDS011;21057;51.024;7.540;2023-05-07T04:21:13;20.10;;;19.10;;
15454;SDS011;21057;51.024;7.540;2023-05-07T04:23:40;20.80;;;19.60;;
15454;SDS011;21057;51.024;7.540;2023-05-07T04:26:07;21.52;;;20.30;;
15454;SDS011;21057;51.024;7.540;2023-05-07T04:28:34;20.83;;;19.63;;
15454;SDS011;21057;51.024;7.540;2023-05-07T04:31:01;20.75;;;19.55;;
15454;SDS011;21057;51.024;7.540;2023-05-07T04:33:30;20.70;;;19.50;;
15454;SDS011;21057;51.024;7.540;2023-05-07T04:35:57;20.67;;;19.47;;
15454;SDS011;21057;51.024;7.540;2023-05-07T04:38:27;21.10;;;19.90;;
15454;SDS011;21057;51.024;7.540;2023-05-07T04:40:54;21.20;;;20.00;;
15454;SDS011;21057;51.024;7.540;2023-05-07T04:43:22;20.73;;;19.57;;
15454;SDS011;21057;51.024;7.540;2023-05-07T04:45:49;20.90;;;19.70;;
15454;SDS011;21057;51.024;7.540;2023-05-07T04:48:16;22.40;;;21.20;;
15454;SDS011;21057;51.024;7.540;2023-05-07T04:50:45;23.60;;;22.30;;
15454;SDS011;21057;51.024;7.540;2023-05-07T04:53:14;23.00;;;21.80;;
15454;SDS011;21057;51.024;7.540;2023-05-07T04:55:41;23.30;;;22.15;;
15454;SDS011;21057;51.024;7.540;2023-05-07T04:58:07;22.38;;;21.10;;
15454;SDS011;21057;51.024;7.540;2023-05-07T05:00:34;21.63;;;20.42;;
15454;SDS011;21057;51.024;7.540;2023-05-07T05:03:01;22.50;;;21.30;;
15454;SDS011;21057;51.024;7.540;2023-05-07T05:05:28;22.15;;;20.95;;
15454;SDS011;21057;51.024;7.540;2023-05-07T05:07:56;22.00;;;20.80;;
15454;SDS011;21057;51.024;7.540;2023-05-07T05:10:23;20.98;;;19.77;;
15454;SDS011;21057;51.024;7.540;2023-05-07T05:12:50;22.38;;;20.88;;
15454;SDS011;21057;51.024;7.540;2023-05-07T05:15:17;21.52;;;20.23;;
15454;SDS011;21057;51.024;7.540;2023-05-07T05:17:44;21.20;;;19.90;;
15454;SDS011;21057;51.024;7.540;2023-05-07T05:20:11;21.33;;;20.13;;
15454;SDS011;21057;51.024;7.540;2023-05-07T05:22:37;21.77;;;20.48;;
15454;SDS011;21057;51.024;7.540;2023-05-07T05:25:06;21.45;;;19.88;;
15454;SDS011;21057;51.024;7.540;2023-05-07T05:27:33;21.15;;;19.95;;
15454;SDS011;21057;51.024;7.540;2023-05-07T05:30:00;21.33;;;20.13;;
15454;SDS011;21057;51.024;7.540;2023-05-07T05:32:27;21.25;;;20.02;;
15454;SDS011;21057;51.024;7.540;2023-05-07T05:34:54;21.38;;;20.13;;
15454;SDS011;21057;51.024;7.540;2023-05-07T05:37:21;21.85;;;20.52;;
15454;SDS011;21057;51.024;7.540;2023-05-07T05:39:48;21.75;;;20.45;;
15454;SDS011;21057;51.024;7.540;2023-05-07T05:42:16;22.25;;;21.00;;
15454;SDS011;21057;51.024;7.540;2023-05-07T05:44:43;22.85;;;21.55;;
15454;SDS011;21057;51.024;7.540;2023-05-07T05:47:10;21.90;;;20.70;;
15454;SDS011;21057;51.024;7.540;2023-05-07T05:49:37;23.08;;;21.88;;
15454;SDS011;21057;51.024;7.540;2023-05-07T05:52:04;22.42;;;21.13;;
15454;SDS011;21057;51.024;7.540;2023-05-07T05:54:30;22.58;;;21.15;;
15454;SDS011;21057;51.024;7.540;2023-05-07T05:56:57;21.85;;;20.55;;
15454;SDS011;21057;51.024;7.540;2023-05-07T05:59:25;21.42;;;20.05;;
15454;SDS011;21057;51.024;7.540;2023-05-07T06:01:52;21.67;;;20.08;;
15454;SDS011;21057;51.024;7.540;2023-05-07T06:04:19;21.42;;;20.13;;
15454;SDS011;21057;51.024;7.540;2023-05-07T06:06:46;21.25;;;20.05;;
15454;SDS011;21057;51.024;7.540;2023-05-07T06:09:13;21.45;;;20.25;;
15454;SDS011;21057;51.024;7.540;2023-05-07T06:11:40;22.00;;;20.70;;
15454;SDS011;21057;51.024;7.540;2023-05-07T06:14:06;21.38;;;20.17;;
15454;SDS011;21057;51.024;7.540;2023-05-07T06:16:34;21.55;;;20.15;;
15454;SDS011;21057;51.024;7.540;2023-05-07T06:19:03;21.42;;;20.13;;
15454;SDS011;21057;51.024;7.540;2023-05-07T06:21:29;21.02;;;19.73;;
15454;SDS011;21057;51.024;7.540;2023-05-07T06:23:56;21.25;;;19.95;;
15454;SDS011;21057;51.024;7.540;2023-05-07T06:26:23;21.15;;;19.90;;
15454;SDS011;21057;51.024;7.540;2023-05-07T06:28:50;20.95;;;19.65;;
15454;SDS011;21057;51.024;7.540;2023-05-07T06:31:18;21.25;;;19.95;;
15454;SDS011;21057;51.024;7.540;2023-05-07T06:33:47;20.60;;;19.40;;
15454;SDS011;21057;51.024;7.540;2023-05-07T06:36:15;21.80;;;20.20;;
15454;SDS011;21057;51.024;7.540;2023-05-07T06:38:42;20.45;;;19.25;;
15454;SDS011;21057;51.024;7.540;2023-05-07T06:41:08;20.63;;;19.33;;
15454;SDS011;21057;51.024;7.540;2023-05-07T06:43:35;20.17;;;18.98;;
15454;SDS011;21057;51.024;7.540;2023-05-07T06:46:02;20.40;;;19.15;;
15454;SDS011;21057;51.024;7.540;2023-05-07T06:48:30;21.17;;;19.75;;
15454;SDS011;21057;51.024;7.540;2023-05-07T06:50:58;21.48;;;19.90;;
15454;SDS011;21057;51.024;7.540;2023-05-07T06:53:25;21.35;;;20.05;;
15454;SDS011;21057;51.024;7.540;2023-05-07T06:55:53;21.25;;;20.05;;
15454;SDS011;21057;51.024;7.540;2023-05-07T06:58:20;19.98;;;18.77;;
15454;SDS011;21057;51.024;7.540;2023-05-07T07:00:47;20.20;;;19.00;;
15454;SDS011;21057;51.024;7.540;2023-05-07T07:03:13;21.35;;;20.05;;
15454;SDS011;21057;51.024;7.540;2023-05-07T07:05:40;21.42;;;20.13;;
15454;SDS011;21057;51.024;7.540;2023-05-07T07:08:10;21.15;;;19.85;;
15454;SDS011;21057;51.024;7.540;2023-05-07T07:10:37;21.17;;;19.98;;
15454;SDS011;21057;51.024;7.540;2023-05-07T07:13:04;20.60;;;19.40;;
15454;SDS011;21057;51.024;7.540;2023-05-07T07:15:31;20.35;;;19.05;;
15454;SDS011;21057;51.024;7.540;2023-05-07T07:18:01;19.48;;;18.38;;
15454;SDS011;21057;51.024;7.540;2023-05-07T07:20:28;19.63;;;18.48;;
15454;SDS011;21057;51.024;7.540;2023-05-07T07:22:54;19.67;;;18.58;;
15454;SDS011;21057;51.024;7.540;2023-05-07T07:25:23;19.88;;;18.67;;
15454;SDS011;21057;51.024;7.540;2023-05-07T07:27:49;20.88;;;18.98;;
15454;SDS011;21057;51.024;7.540;2023-05-07T07:30:16;19.50;;;18.30;;
15454;SDS011;21057;51.024;7.540;2023-05-07T07:32:43;20.13;;;18.92;;
15454;SDS011;21057;51.024;7.540;2023-05-07T07:35:10;20.05;;;18.83;;
15454;SDS011;21057;51.024;7.540;2023-05-07T07:37:37;20.23;;;19.00;;
15454;SDS011;21057;51.024;7.540;2023-05-07T07:40:04;19.60;;;18.15;;
15454;SDS011;21057;51.024;7.540;2023-05-07T07:42:33;19.70;;;18.50;;
15454;SDS011;21057;51.024;7.540;2023-05-07T07:45:00;19.00;;;17.90;;
15454;SDS011;21057;51.024;7.540;2023-05-07T07:47:27;18.65;;;17.55;;
15454;SDS011;21057;51.024;7.540;2023-05-07T07:49:54;19.13;;;18.02;;
15454;SDS011;21057;51.024;7.540;2023-05-07T07:52:22;19.33;;;18.23;;
15454;SDS011;21057;51.024;7.540;2023-05-07T07:54:48;19.10;;;17.90;;
15454;SDS011;21057;51.024;7.540;2023-05-07T07:57:16;19.02;;;17.83;;
15454;SDS011;21057;51.024;7.540;2023-05-07T07:59:44;19.67;;;18.48;;
15454;SDS011;21057;51.024;7.540;2023-05-07T08:02:11;19.98;;;18.77;;
15454;SDS011;21057;51.024;7.540;2023-05-07T08:04:38;19.27;;;18.17;;
15454;SDS011;21057;51.024;7.540;2023-05-07T08:07:05;19.38;;;18.20;;
15454;SDS011;21057;51.024;7.540;2023-05-07T08:09:32;19.88;;;18.67;;
15454;SDS011;21057;51.024;7.540;2023-05-07T08:11:59;19.80;;;18.40;;
15454;SDS011;21057;51.024;7.540;2023-05-07T08:14:26;19.00;;;17.90;;
15454;SDS011;21057;51.024;7.540;2023-05-07T08:16:54;19.23;;;18.08;;
15454;SDS011;21057;51.024;7.540;2023-05-07T08:19:21;19.58;;;18.38;;
15454;SDS011;21057;51.024;7.540;2023-05-07T08:21:48;19.73;;;18.52;;
15454;SDS011;21057;51.024;7.540;2023-05-07T08:24:15;19.77;;;18.58;;
15454;SDS011;21057;51.024;7.540;2023-05-07T08:26:42;19.98;;;18.58;;
15454;SDS011;21057;51.024;7.540;2023-05-07T08:29:10;19.80;;;18.50;;
15454;SDS011;21057;51.024;7.540;2023-05-07T08:31:37;19.63;;;18.42;;
15454;SDS011;21057;51.024;7.540;2023-05-07T08:34:06;19.55;;;18.33;;
15454;SDS011;21057;51.024;7.540;2023-05-07T08:36:33;19.75;;;18.30;;
15454;SDS011;21057;51.024;7.540;2023-05-07T08:38:59;19.30;;;18.15;;
15454;SDS011;21057;51.024;7.540;2023-05-07T08:41:27;19.23;;;18.05;;
15454;SDS011;21057;51.024;7.540;2023-05-07T08:43:54;19.42;;;18.25;;
15454;SDS011;21057;51.024;7.540;2023-05-07T08:46:23;20.48;;;19.27;;
15454;SDS011;21057;51.024;7.540;2023-05-07T08:48:51;19.50;;;18.30;;
15454;SDS011;21057;51.024;7.540;2023-05-07T08:51:20;20.35;;;18.95;;
15454;SDS011;21057;51.024;7.540;2023-05-07T08:53:47;20.10;;;18.90;;
15454;SDS011;21057;51.024;7.540;2023-05-07T08:56:15;19.70;;;18.50;;
15454;SDS011;21057;51.024;7.540;2023-05-07T08:58:43;18.83;;;17.63;;
15454;SDS011;21057;51.024;7.540;2023-05-07T09:01:12;20.73;;;19.33;;
15454;SDS011;21057;51.024;7.540;2023-05-07T09:03:40;20.13;;;18.90;;
15454;SDS011;21057;51.024;7.540;2023-05-07T09:06:10;19.73;;;18.52;;
15454;SDS011;21057;51.024;7.540;2023-05-07T09:08:38;19.73;;;18.52;;
15454;SDS011;21057;51.024;7.540;2023-05-07T09:11:05;19.45;;;18.25;;
15454;SDS011;21057;51.024;7.540;2023-05-07T09:13:32;18.58;;;17.48;;
15454;SDS011;21057;51.024;7.540;2023-05-07T09:15:59;19.20;;;18.00;;
15454;SDS011;21057;51.024;7.540;2023-05-07T09:18:35;18.42;;;17.20;;
15454;SDS011;21057;51.024;7.540;2023-05-07T09:21:09;19.42;;;18.13;;
15454;SDS011;21057;51.024;7.540;2023-05-07T09:23:36;19.60;;;18.40;;
15454;SDS011;21057;51.024;7.540;2023-05-07T09:26:04;20.13;;;18.83;;
15454;SDS011;21057;51.024;7.540;2023-05-07T09:28:37;19.73;;;18.52;;
15454;SDS011;21057;51.024;7.540;2023-05-07T09:31:06;19.38;;;18.20;;
15454;SDS011;21057;51.024;7.540;2023-05-07T09:33:33;19.80;;;18.60;;
15454;SDS011;21057;51.024;7.540;2023-05-07T09:36:01;18.90;;;17.70;;
15454;SDS011;21057;51.024;7.540;2023-05-07T09:38:30;18.67;;;17.38;;
15454;SDS011;21057;51.024;7.540;2023-05-07T09:41:01;18.48;;;17.27;;
15454;SDS011;21057;51.024;7.540;2023-05-07T09:43:32;20.05;;;18.75;;
15454;SDS011;21057;51.024;7.540;2023-05-07T09:46:03;20.30;;;19.00;;
15454;SDS011;21057;51.024;7.540;2023-05-07T09:48:35;19.42;;;18.23;;
15454;SDS011;21057;51.024;7.540;2023-05-07T09:51:06;19.20;;;18.00;;
15454;SDS011;21057;51.024;7.540;2023-05-07T09:53:41;19.17;;;18.08;;
15454;SDS011;21057;51.024;7.540;2023-05-07T09:56:10;18.55;;;17.35;;
15454;SDS011;21057;51.024;7.540;2023-05-07T09:58:41;18.42;;;17.15;;
15454;SDS011;21057;51.024;7.540;2023-05-07T10:01:10;18.58;;;17.40;;
15454;SDS011;21057;51.024;7.540;2023-05-07T10:03:37;18.30;;;17.20;;
15454;SDS011;21057;51.024;7.540;2023-05-07T10:06:06;18.85;;;17.75;;
15454;SDS011;21057;51.024;7.540;2023-05-07T10:08:35;19.05;;;17.85;;
15454;SDS011;21057;51.024;7.540;2023-05-07T10:11:02;19.20;;;18.00;;
15454;SDS011;21057;51.024;7.540;2023-05-07T10:13:29;19.15;;;17.65;;
15454;SDS011;21057;51.024;7.540;2023-05-07T10:15:58;20.02;;;18.73;;
15454;SDS011;21057;51.024;7.540;2023-05-07T10:18:26;18.98;;;17.80;;
15454;SDS011;21057;51.024;7.540;2023-05-07T10:20:54;19.27;;;18.10;;
15454;SDS011;21057;51.024;7.540;2023-05-07T10:23:28;18.23;;;17.13;;
15454;SDS011;21057;51.024;7.540;2023-05-07T10:25:56;18.60;;;17.50;;
15454;SDS011;21057;51.024;7.540;2023-05-07T10:28:25;18.73;;;17.63;;
15454;SDS011;21057;51.024;7.540;2023-05-07T10:30:57;19.40;;;18.30;;
15454;SDS011;21057;51.024;7.540;2023-05-07T10:33:33;19.80;;;18.50;;
15454;SDS011;21057;51.024;7.540;2023-05-07T10:36:02;19.92;;;18.73;;
15454;SDS011;21057;51.024;7.540;2023-05-07T10:38:32;20.63;;;19.20;;
15454;SDS011;21057;51.024;7.540;2023-05-07T10:40:59;19.38;;;18.23;;
15454;SDS011;21057;51.024;7.540;2023-05-07T10:43:36;19.10;;;18.00;;
15454;SDS011;21057;51.024;7.540;2023-05-07T10:46:16;18.63;;;17.42;;
15454;SDS011;21057;51.024;7.540;2023-05-07T10:51:32;19.25;;;18.05;;
15454;SDS011;21057;51.024;7.540;2023-05-07T10:56:54;18.63;;;17.52;;
15454;SDS011;21057;51.024;7.540;2023-05-07T10:59:30;18.50;;;17.35;;
15454;SDS011;21057;51.024;7.540;2023-05-07T11:02:11;18.85;;;17.67;;
15454;SDS011;21057;51.024;7.540;2023-05-07T11:04:39;19.08;;;17.88;;
15454;SDS011;21057;51.024;7.540;2023-05-07T11:09:56;18.60;;;17.50;;
15454;SDS011;21057;51.024;7.540;2023-05-07T11:15:36;19.38;;;18.17;;
15454;SDS011;21057;51.024;7.540;2023-05-07T11:18:12;18.45;;;17.35;;
15454;SDS011;21057;51.024;7.540;2023-05-07T11:21:00;18.90;;;17.60;;
15454;SDS011;21057;51.024;7.540;2023-05-07T11:26:25;18.48;;;17.27;;
15454;SDS011;21057;51.024;7.540;2023-05-07T11:28:53;18.33;;;17.20;;
15454;SDS011;21057;51.024;7.540;2023-05-07T11:31:20;18.42;;;17.33;;
15454;SDS011;21057;51.024;7.540;2023-05-07T11:33:51;17.95;;;16.95;;
15454;SDS011;21057;51.024;7.540;2023-05-07T11:36:18;18.25;;;17.15;;
15454;SDS011;21057;51.024;7.540;2023-05-07T11:38:47;18.35;;;17.20;;
15454;SDS011;21057;51.024;7.540;2023-05-07T11:41:15;18.60;;;17.33;;
15454;SDS011;21057;51.024;7.540;2023-05-07T11:43:56;18.67;;;17.58;;
15454;SDS011;21057;51.024;7.540;2023-05-07T11:46:24;18.85;;;17.55;;
15454;SDS011;21057;51.024;7.540;2023-05-07T11:48:53;18.65;;;17.23;;
15454;SDS011;21057;51.024;7.540;2023-05-07T11:51:22;18.02;;;16.98;;
15454;SDS011;21057;51.024;7.540;2023-05-07T11:53:51;17.60;;;16.58;;
15454;SDS011;21057;51.024;7.540;2023-05-07T11:56:19;18.25;;;17.05;;
15454;SDS011;21057;51.024;7.540;2023-05-07T11:58:46;18.92;;;17.35;;
15454;SDS011;21057;51.024;7.540;2023-05-07T12:01:14;18.27;;;17.08;;
15454;SDS011;21057;51.024;7.540;2023-05-07T12:03:43;17.85;;;16.75;;
15454;SDS011;21057;51.024;7.540;2023-05-07T12:06:14;18.50;;;17.30;;
15454;SDS011;21057;51.024;7.540;2023-05-07T12:08:42;17.85;;;16.75;;
15454;SDS011;21057;51.024;7.540;2023-05-07T12:11:10;18.20;;;17.00;;
15454;SDS011;21057;51.024;7.540;2023-05-07T12:13:41;18.75;;;17.30;;
15454;SDS011;21057;51.024;7.540;2023-05-07T12:16:08;19.30;;;18.08;;
15454;SDS011;21057;51.024;7.540;2023-05-07T12:18:35;18.33;;;17.23;;
15454;SDS011;21057;51.024;7.540;2023-05-07T12:21:04;18.83;;;17.63;;
15454;SDS011;21057;51.024;7.540;2023-05-07T12:23:34;18.80;;;17.70;;
15454;SDS011;21057;51.024;7.540;2023-05-07T12:26:02;18.58;;;17.27;;
15454;SDS011;21057;51.024;7.540;2023-05-07T12:28:29;18.15;;;17.10;;
15454;SDS011;21057;51.024;7.540;2023-05-07T12:30:56;18.25;;;17.10;;
15454;SDS011;21057;51.024;7.540;2023-05-07T12:33:24;18.95;;;17.77;;
15454;SDS011;21057;51.024;7.540;2023-05-07T12:35:53;18.42;;;17.33;;
15454;SDS011;21057;51.024;7.540;2023-05-07T12:38:21;18.55;;;17.45;;
15454;SDS011;21057;51.024;7.540;2023-05-07T12:40:49;18.88;;;17.77;;
15454;SDS011;21057;51.024;7.540;2023-05-07T12:43:19;19.02;;;17.70;;
15454;SDS011;21057;51.024;7.540;2023-05-07T12:45:48;18.70;;;17.40;;
15454;SDS011;21057;51.024;7.540;2023-05-07T12:48:16;18.80;;;17.60;;
15454;SDS011;21057;51.024;7.540;2023-05-07T12:50:45;18.75;;;17.65;;
15454;SDS011;21057;51.024;7.540;2023-05-07T12:53:14;18.83;;;17.73;;
15454;SDS011;21057;51.024;7.540;2023-05-07T12:55:42;19.25;;;17.98;;
15454;SDS011;21057;51.024;7.540;2023-05-07T12:58:16;19.45;;;18.33;;
15454;SDS011;21057;51.024;7.540;2023-05-07T13:00:44;18.92;;;17.80;;
15454;SDS011;21057;51.024;7.540;2023-05-07T13:03:17;18.42;;;17.40;;
15454;SDS011;21057;51.024;7.540;2023-05-07T13:05:49;18.30;;;17.20;;
15454;SDS011;21057;51.024;7.540;2023-05-07T13:08:26;19.00;;;17.88;;
15454;SDS011;21057;51.024;7.540;2023-05-07T13:10:54;18.60;;;17.50;;
15454;SDS011;21057;51.024;7.540;2023-05-07T13:13:22;18.75;;;17.55;;
15454;SDS011;21057;51.024;7.540;2023-05-07T13:15:49;18.65;;;17.50;;
15454;SDS011;21057;51.024;7.540;2023-05-07T13:18:16;18.65;;;17.55;;
15454;SDS011;21057;51.024;7.540;2023-05-07T13:20:43;18.40;;;17.30;;
15454;SDS011;21057;51.024;7.540;2023-05-07T13:23:10;19.10;;;18.00;;
15454;SDS011;21057;51.024;7.540;2023-05-07T13:25:36;18.80;;;17.60;;
15454;SDS011;21057;51.024;7.540;2023-05-07T13:28:04;19.60;;;18.40;;
15454;SDS011;21057;51.024;7.540;2023-05-07T13:30:32;18.27;;;17.17;;
15454;SDS011;21057;51.024;7.540;2023-05-07T13:32:59;19.15;;;17.98;;
15454;SDS011;21057;51.024;7.540;2023-05-07T13:35:26;19.50;;;18.30;;
15454;SDS011;21057;51.024;7.540;2023-05-07T13:37:53;19.27;;;18.17;;
15454;SDS011;21057;51.024;7.540;2023-05-07T13:40:20;18.52;;;17.42;;
15454;SDS011;21057;51.024;7.540;2023-05-07T13:42:47;19.00;;;17.85;;
15454;SDS011;21057;51.024;7.540;2023-05-07T13:45:15;19.20;;;17.85;;
15454;SDS011;21057;51.024;7.540;2023-05-07T13:47:43;20.25;;;19.00;;
15454;SDS011;21057;51.024;7.540;2023-05-07T13:50:11;20.58;;;19.35;;
15454;SDS011;21057;51.024;7.540;2023-05-07T13:52:40;20.55;;;19.15;;
15454;SDS011;21057;51.024;7.540;2023-05-07T13:55:11;20.73;;;19.52;;
15454;SDS011;21057;51.024;7.540;2023-05-07T13:57:38;21.50;;;20.15;;
15454;SDS011;21057;51.024;7.540;2023-05-07T14:00:05;20.85;;;19.58;;
15454;SDS011;21057;51.024;7.540;2023-05-07T14:02:33;20.83;;;19.48;;
15454;SDS011;21057;51.024;7.540;2023-05-07T14:05:01;21.13;;;19.80;;
15454;SDS011;21057;51.024;7.540;2023-05-07T14:07:28;21.23;;;19.83;;
15454;SDS011;21057;51.024;7.540;2023-05-07T14:09:55;20.73;;;19.48;;
15454;SDS011;21057;51.024;7.540;2023-05-07T14:12:22;20.38;;;19.17;;
15454;SDS011;21057;51.024;7.540;2023-05-07T14:14:49;20.63;;;19.33;;
15454;SDS011;21057;51.024;7.540;2023-05-07T14:17:16;20.00;;;18.70;;
15454;SDS011;21057;51.024;7.540;2023-05-07T14:19:44;20.88;;;19.27;;
15454;SDS011;21057;51.024;7.540;2023-05-07T14:22:12;20.50;;;19.20;;
15454;SDS011;21057;51.024;7.540;2023-05-07T14:24:39;20.50;;;19.30;;
15454;SDS011;21057;51.024;7.540;2023-05-07T14:27:06;21.60;;;20.33;;
15454;SDS011;21057;51.024;7.540;2023-05-07T14:29:33;21.92;;;20.63;;
15454;SDS011;21057;51.024;7.540;2023-05-07T14:32:01;24.08;;;22.58;;
15454;SDS011;21057;51.024;7.540;2023-05-07T14:34:28;23.17;;;21.77;;
15454;SDS011;21057;51.024;7.540;2023-05-07T14:36:55;23.73;;;22.23;;
15454;SDS011;21057;51.024;7.540;2023-05-07T14:39:23;23.08;;;21.70;;